Search for airport 
image banner adimage banner adimage banner ad
image banner ad

KLBE - Arnold Palmer Rgnl

Located in Latrobe, United States

ICAO - LBE, IATA - LBE

Data provided by Airmate  

General information

Coordinates: N40°16'23" W79°24'37"
Elevation is 1199 feet MSL.
Magnetic variation is -10° East
View others Airports in Pennsylvania

Operational data

Special qualification required
Current time UTC:
Current local time:
Weather
METAR: KLBE 071347Z 00000KT 10SM FEW037 SCT050 BKN070 10/04 A2988
TAF: KLBE 071133Z 0712/0812 14003KT P6SM BKN070 FM071300 19005KT P6SM -SHRA OVC050 FM071500 24006KT 3SM -SHRA OVC025 FM071800 27007KT 5SM -SHRA OVC015 FM072100 30008KT P6SM BKN040 FM080600 22004KT P6SM VCSH BKN025
View NOTAMs / SUP AIP / TFR affecting this airport [VIEW]
Communications frequencies: [VIEW]

Runways:

RWY identifierQFULength (ft)Width (ft)SurfaceLDA (ft)
0646°8222100ASPH8222
24226°8222100ASPH7372

Airport contact information

Address: Latrobe United States

Other aviation service providers

Flight schools

Pittsburgh Flying Club

Pittsburgh Flying Club
e170ca@gmail.com+1(412)849-2103

Westmoreland Aviation

Westmoreland Aviation

Satellite view of KLBE